Time;durP1;ratioP1;P1;durP2;ratioP2;P2;SDS_P1;SDS_P2;PMS_P1;PMS_P2;Temp;Humidity;BMP_temperature;BMP_pressure;BME280_temperature;BME280_humidity;BME280_pressure;Samples;Min_cycle;Max_cycle;Signal;HPM_P1;HPM_P2
2022/07/27 00:01:14;;;;;;;20.60;18.52;;;;;;;21.97;87.51;100028.22;4987724;28;20050;-68
2022/07/27 00:03:40;;;;;;;19.45;17.20;;;;;;;21.94;87.78;100028.63;4987285;28;20030;-68
2022/07/27 00:06:06;;;;;;;20.60;18.38;;;;;;;21.91;87.89;100029.06;4987569;28;20517;-68
2022/07/27 00:08:32;;;;;;;20.20;18.08;;;;;;;21.81;87.95;100018.59;4987249;28;20053;-68
2022/07/27 00:10:58;;;;;;;18.67;16.88;;;;;;;21.84;87.96;100042.75;4985971;28;20026;-67
2022/07/27 00:13:24;;;;;;;19.85;17.85;;;;;;;21.75;87.89;100029.53;4987451;28;20088;-68
2022/07/27 00:15:49;;;;;;;18.70;16.80;;;;;;;21.71;87.88;100034.56;4985875;28;20023;-68
2022/07/27 00:18:15;;;;;;;19.40;17.40;;;;;;;21.73;88.32;100040.66;4987659;28;20026;-68
2022/07/27 00:20:41;;;;;;;17.95;16.17;;;;;;;21.67;88.50;100055.13;4987322;28;20042;-68
2022/07/27 00:23:07;;;;;;;20.05;17.52;;;;;;;21.62;89.10;100048.63;4987358;28;20066;-68
2022/07/27 00:25:32;;;;;;;19.13;17.13;;;;;;;21.47;88.76;100026.19;4987100;28;20440;-68
2022/07/27 00:27:58;;;;;;;18.35;16.48;;;;;;;21.53;89.20;100041.69;4987160;28;20081;-68
2022/07/27 00:30:24;;;;;;;18.17;16.27;;;;;;;21.41;89.24;100024.31;4987231;28;20114;-68
2022/07/27 00:32:50;;;;;;;18.60;16.67;;;;;;;21.49;89.46;100045.91;4992503;28;20469;-68
2022/07/27 00:35:16;;;;;;;17.52;15.73;;;;;;;21.33;89.47;100024.50;4993646;28;20018;-69
2022/07/27 00:37:41;;;;;;;19.40;17.40;;;;;;;21.42;89.31;100040.47;4993754;28;20042;-68
2022/07/27 00:40:07;;;;;;;19.00;16.95;;;;;;;21.40;89.42;100044.44;4993538;28;20544;-68
2022/07/27 00:42:33;;;;;;;18.65;16.85;;;;;;;21.34;89.60;100043.41;4993628;28;20049;-68
2022/07/27 00:44:59;;;;;;;19.65;16.58;;;;;;;21.31;89.66;100046.53;4993673;28;20399;-67
2022/07/27 00:47:25;;;;;;;18.67;16.48;;;;;;;21.18;89.81;100032.09;4993743;28;20041;-68
2022/07/27 00:49:51;;;;;;;18.13;16.23;;;;;;;21.21;90.24;100046.13;4993511;28;20030;-67
2022/07/27 00:52:17;;;;;;;18.98;17.08;;;;;;;21.15;90.43;100046.13;4993979;28;20034;-67
2022/07/27 00:54:43;;;;;;;18.75;16.92;;;;;;;21.10;90.70;100054.09;4993485;28;20058;-67
2022/07/27 00:57:11;;;;;;;18.50;16.52;;;;;;;21.07;90.70;100055.38;4991924;28;20030;-67
2022/07/27 00:59:37;;;;;;;17.10;15.50;;;;;;;21.05;90.97;100068.34;4993248;28;20471;-67
2022/07/27 01:02:03;;;;;;;16.00;14.48;;;;;;;21.05;91.04;100057.44;4993742;28;20034;-68
2022/07/27 01:04:29;;;;;;;17.55;15.85;;;;;;;21.02;91.34;100063.31;4993092;28;20026;-68
2022/07/27 01:06:55;;;;;;;17.02;15.25;;;;;;;20.96;91.66;100064.13;4993392;28;20380;-67
2022/07/27 01:12:07;;;;;;;17.77;15.43;;;;;;;20.90;92.40;100069.56;4993654;28;20408;-67
2022/07/27 01:14:33;;;;;;;17.80;16.02;;;;;;;20.79;92.37;100067.47;4993135;28;20034;-68
2022/07/27 01:16:59;;;;;;;18.10;16.30;;;;;;;20.72;92.88;100056.53;4993257;28;20034;-67
2022/07/27 01:19:25;;;;;;;16.70;15.05;;;;;;;20.69;93.09;100056.06;4993421;28;20656;-67
2022/07/27 01:21:50;;;;;;;19.05;17.08;;;;;;;20.76;92.99;100067.88;4993262;28;20121;-68
2022/07/27 01:24:16;;;;;;;17.50;15.75;;;;;;;20.79;92.64;100078.34;4993362;28;20106;-69
2022/07/27 01:26:42;;;;;;;19.70;16.48;;;;;;;20.70;92.84;100065.97;4993422;28;20056;-69
2022/07/27 01:29:07;;;;;;;17.63;15.82;;;;;;;20.64;92.64;100061.31;4993224;28;20030;-68
2022/07/27 01:31:33;;;;;;;17.13;15.35;;;;;;;20.67;92.39;100063.63;4991517;28;20425;-68
2022/07/27 01:33:58;;;;;;;17.77;15.98;;;;;;;20.67;92.80;100078.09;4993518;28;20097;-69
2022/07/27 01:36:24;;;;;;;20.40;15.90;;;;;;;20.55;93.02;100059.81;4992951;28;20057;-68
2022/07/27 01:38:49;;;;;;;18.58;15.98;;;;;;;20.57;93.55;100069.47;4993163;28;20049;-68
2022/07/27 01:41:15;;;;;;;17.63;15.93;;;;;;;20.51;92.95;100062.13;4991698;28;20065;-67
2022/07/27 01:43:40;;;;;;;17.35;15.65;;;;;;;20.54;93.39;100077.22;4990962;28;20465;-67
2022/07/27 01:46:06;;;;;;;19.33;17.25;;;;;;;20.51;93.26;100067.59;4988577;28;20029;-67
2022/07/27 01:48:32;;;;;;;18.55;16.70;;;;;;;20.47;93.44;100068.19;4989547;28;20024;-67
2022/07/27 01:50:57;;;;;;;18.27;16.23;;;;;;;20.33;93.20;100050.09;4990088;28;20061;-68
2022/07/27 01:53:23;;;;;;;18.05;16.25;;;;;;;20.42;92.98;100065.22;4989643;28;20057;-67
2022/07/27 01:55:50;;;;;;;18.00;16.10;;;;;;;20.30;93.21;100055.94;4989916;28;20037;-67
2022/07/27 01:58:16;;;;;;;18.73;16.52;;;;;;;20.36;93.25;100071.47;4989909;28;20436;-67
2022/07/27 02:00:42;;;;;;;18.17;16.27;;;;;;;20.32;93.31;100070.22;4989391;28;20772;-67
2022/07/27 02:03:09;;;;;;;17.35;15.52;;;;;;;20.28;93.36;100064.31;4989446;28;20054;-68
2022/07/27 02:05:36;;;;;;;19.00;16.70;;;;;;;20.26;92.83;100069.16;4987833;28;20041;-68
2022/07/27 02:08:03;;;;;;;17.08;15.27;;;;;;;20.23;92.89;100071.44;4989689;28;20037;-68
2022/07/27 02:10:29;;;;;;;16.95;15.25;;;;;;;19.97;92.80;100031.28;4989371;28;20056;-68
2022/07/27 02:12:54;;;;;;;20.17;16.45;;;;;;;20.16;92.72;100066.78;4989602;28;20476;-68
2022/07/27 02:15:22;;;;;;;18.08;16.27;;;;;;;20.21;92.58;100084.44;4989732;28;20468;-69
2022/07/27 02:17:48;;;;;;;21.08;16.52;;;;;;;20.12;92.40;100070.97;4988617;28;20089;-68
2022/07/27 02:20:18;;;;;;;20.25;16.48;;;;;;;20.16;92.56;100077.69;4989390;28;20030;-69
2022/07/27 02:22:44;;;;;;;18.67;15.55;;;;;;;20.15;92.20;100086.06;4989366;28;20057;-69
2022/07/27 02:25:12;;;;;;;18.83;15.65;;;;;;;20.10;92.33;100075.75;4987625;28;20032;-68
2022/07/27 02:27:41;;;;;;;18.58;16.58;;;;;;;20.07;92.44;100075.31;4987793;28;20038;-67
2022/07/27 02:30:09;;;;;;;18.15;15.88;;;;;;;20.00;93.04;100071.72;4989063;28;20038;-68
2022/07/27 02:32:34;;;;;;;18.10;16.35;;;;;;;19.96;92.51;100070.44;4989063;28;20429;-68
2022/07/27 02:35:00;;;;;;;17.67;15.85;;;;;;;19.89;92.90;100072.25;4989381;28;20030;-68
2022/07/27 02:37:26;;;;;;;18.23;16.13;;;;;;;19.84;92.82;100077.47;4987707;28;20492;-68
2022/07/27 02:39:51;;;;;;;27.08;16.73;;;;;;;19.80;93.04;100085.19;4988946;28;20038;-68
2022/07/27 02:42:18;;;;;;;17.90;16.00;;;;;;;19.80;93.38;100092.53;4989211;28;20058;-68
2022/07/27 02:44:43;;;;;;;20.05;16.45;;;;;;;19.64;93.47;100069.16;4988453;28;20101;-68
2022/07/27 02:47:09;;;;;;;16.92;15.23;;;;;;;19.72;93.64;100085.34;4988855;28;20034;-67
2022/07/27 02:49:34;;;;;;;19.20;16.35;;;;;;;19.71;93.61;100096.44;4988583;28;20038;-68
2022/07/27 02:52:00;;;;;;;17.65;15.70;;;;;;;19.67;93.73;100089.72;4988298;28;20030;-68
2022/07/27 02:54:26;;;;;;;17.80;15.15;;;;;;;19.61;94.05;100091.31;4987962;28;20092;-68
2022/07/27 02:56:53;;;;;;;16.88;15.18;;;;;;;19.59;93.92;100089.84;4988563;28;20555;-68
2022/07/27 02:59:19;;;;;;;17.00;15.25;;;;;;;19.65;94.01;100099.94;4988384;28;20034;-69
2022/07/27 03:01:46;;;;;;;20.90;15.32;;;;;;;19.64;93.70;100103.72;4987043;28;20038;-68
2022/07/27 03:04:12;;;;;;;17.38;15.32;;;;;;;19.62;93.40;100103.06;4988206;28;20104;-68
2022/07/27 03:06:37;;;;;;;17.60;15.85;;;;;;;19.50;93.16;100086.44;4987617;28;20030;-68
2022/07/27 03:09:03;;;;;;;16.13;14.52;;;;;;;19.59;93.25;100101.59;4988375;28;20038;-68
2022/07/27 03:11:29;;;;;;;17.48;14.75;;;;;;;19.53;92.80;100099.66;4987648;28;20049;-68
2022/07/27 03:13:55;;;;;;;17.98;15.25;;;;;;;19.59;92.68;100112.47;4987682;28;20835;-68
2022/07/27 03:16:20;;;;;;;22.95;16.02;;;;;;;19.55;92.22;100105.75;4988222;28;20030;-68
2022/07/27 03:18:46;;;;;;;16.75;14.88;;;;;;;19.44;91.94;100084.50;4986199;28;20038;-69
2022/07/27 03:21:12;;;;;;;15.73;14.13;;;;;;;19.56;91.77;100103.84;4988326;28;20030;-68
2022/07/27 03:23:37;;;;;;;16.10;14.00;;;;;;;19.46;91.70;100093.31;4988446;28;20034;-69
2022/07/27 03:26:03;;;;;;;15.75;14.18;;;;;;;19.48;92.13;100104.00;4988522;28;20033;-68
2022/07/27 03:28:28;;;;;;;16.98;15.27;;;;;;;19.47;92.36;100115.91;4988420;28;20361;-68
2022/07/27 03:30:54;;;;;;;20.02;15.27;;;;;;;19.41;92.54;100122.16;4988813;28;20069;-67
2022/07/27 03:33:19;;;;;;;18.67;14.75;;;;;;;19.34;92.38;100110.34;4988229;28;20026;-68
2022/07/27 03:35:45;;;;;;;19.77;15.70;;;;;;;19.33;93.00;100116.84;4988168;28;20424;-68
2022/07/27 03:38:10;;;;;;;16.63;14.88;;;;;;;19.29;92.91;100121.84;4988514;28;20761;-67
2022/07/27 03:40:36;;;;;;;18.25;14.75;;;;;;;19.26;92.89;100114.06;4988059;28;20034;-67
2022/07/27 03:43:01;;;;;;;17.05;15.10;;;;;;;19.23;92.98;100119.88;4986198;28;20030;-67
2022/07/27 03:45:27;;;;;;;17.92;15.98;;;;;;;19.23;92.98;100130.75;4988287;28;20041;-68
2022/07/27 03:47:52;;;;;;;17.92;15.60;;;;;;;19.06;93.45;100106.72;4988278;28;20032;-68
2022/07/27 03:50:18;;;;;;;17.88;16.08;;;;;;;19.21;93.58;100132.81;4987854;28;20083;-68
2022/07/27 03:52:44;;;;;;;16.80;15.02;;;;;;;19.16;93.81;100120.84;4988080;28;20031;-68
2022/07/27 03:55:10;;;;;;;17.27;15.48;;;;;;;19.17;94.07;100127.94;4986425;28;20057;-68
2022/07/27 03:57:35;;;;;;;17.50;15.60;;;;;;;19.17;94.42;100126.09;4987553;28;20073;-68
2022/07/27 04:00:01;;;;;;;16.25;14.63;;;;;;;19.14;94.19;100118.31;4987999;28;20034;-67
2022/07/27 04:02:27;;;;;;;17.58;14.93;;;;;;;19.31;94.64;100138.78;4987999;28;20121;-67
2022/07/27 04:04:52;;;;;;;22.42;15.40;;;;;;;19.37;94.28;100135.28;4987376;28;20041;-68
2022/07/27 04:07:17;;;;;;;19.45;15.13;;;;;;;19.41;93.89;100122.97;4987296;28;20026;-67
2022/07/27 04:09:43;;;;;;;23.70;15.10;;;;;;;19.48;93.21;100115.72;4987710;28;20033;-68
2022/07/27 04:12:08;;;;;;;25.20;15.07;;;;;;;19.63;92.36;100127.34;4987698;28;20080;-68
2022/07/27 04:14:34;;;;;;;21.63;14.13;;;;;;;19.73;91.46;100132.44;4987821;28;20092;-68
2022/07/27 04:17:00;;;;;;;19.00;13.80;;;;;;;19.71;90.41;100121.78;4986040;28;20036;-68
2022/07/27 04:19:25;;;;;;;14.93;13.23;;;;;;;19.86;89.17;100132.53;4987850;28;20407;-68
2022/07/27 04:21:50;;;;;;;15.18;11.85;;;;;;;19.93;88.22;100134.28;4987305;28;20025;-68
2022/07/27 04:24:16;;;;;;;13.60;12.20;;;;;;;20.02;87.44;100129.50;4987408;28;20026;-68
2022/07/27 04:26:42;;;;;;;14.48;11.90;;;;;;;20.11;86.41;100129.19;4987199;28;20503;-67
2022/07/27 04:29:07;;;;;;;13.48;11.63;;;;;;;20.23;85.52;100131.34;4987304;28;20057;-67
2022/07/27 04:31:32;;;;;;;12.68;10.77;;;;;;;20.34;84.56;100130.78;4987132;28;20038;-67
2022/07/27 04:33:58;;;;;;;14.65;11.10;;;;;;;20.47;82.81;100139.03;4987693;28;20545;-67
2022/07/27 04:36:23;;;;;;;12.20;9.38;;;;;;;20.51;80.98;100134.84;4987442;28;20030;-66
2022/07/27 04:38:49;;;;;;;15.95;10.13;;;;;;;20.65;81.47;100142.03;4987324;28;20385;-67
2022/07/27 04:41:14;;;;;;;12.32;9.48;;;;;;;20.74;80.51;100132.63;4986569;28;20929;-67
2022/07/27 04:43:40;;;;;;;14.10;8.45;;;;;;;20.91;78.57;100147.59;4984765;28;20054;-67
2022/07/27 04:46:05;;;;;;;14.25;8.68;;;;;;;21.05;77.69;100136.53;4986504;28;20038;-67
2022/07/27 04:48:32;;;;;;;8.68;7.68;;;;;;;21.14;76.03;100129.84;4986836;28;20080;-68
2022/07/27 04:50:58;;;;;;;10.30;7.45;;;;;;;21.30;73.16;100137.63;4987441;28;20028;-67
2022/07/27 04:53:23;;;;;;;9.32;6.78;;;;;;;21.36;72.91;100125.06;4987147;28;20496;-67
2022/07/27 04:55:49;;;;;;;12.23;6.93;;;;;;;21.55;72.17;100140.59;4987289;28;20039;-66
2022/07/27 04:58:15;;;;;;;9.15;7.13;;;;;;;21.62;70.84;100136.81;4987407;28;20061;-67
2022/07/27 05:00:40;;;;;;;9.43;6.90;;;;;;;21.77;70.31;100142.94;4989103;28;20062;-66
2022/07/27 05:03:06;;;;;;;8.68;6.55;;;;;;;21.81;70.15;100132.44;4989554;28;20057;-67
2022/07/27 05:05:31;;;;;;;9.55;6.70;;;;;;;22.00;69.14;100134.31;4987223;28;20153;-67
2022/07/27 05:07:57;;;;;;;9.88;6.20;;;;;;;22.07;67.57;100133.25;4987417;28;20026;-68
2022/07/27 05:10:22;;;;;;;15.25;6.88;;;;;;;22.27;67.13;100144.13;4986688;28;20034;-69
2022/07/27 05:12:48;;;;;;;10.80;5.78;;;;;;;22.33;65.69;100140.53;4986635;28;20030;-68
2022/07/27 05:15:15;;;;;;;10.20;5.93;;;;;;;22.56;65.15;100151.00;4985387;28;20033;-67
2022/07/27 05:17:40;;;;;;;11.32;5.60;;;;;;;22.71;64.20;100159.78;4983404;28;20042;-68
2022/07/27 05:20:07;;;;;;;7.18;4.78;;;;;;;22.87;63.14;100162.88;4988247;28;20048;-69
2022/07/27 05:22:32;;;;;;;10.88;4.93;;;;;;;23.04;62.05;100166.78;4990348;28;20018;-68
2022/07/27 05:24:58;;;;;;;8.15;4.80;;;;;;;23.22;61.40;100171.53;4990151;28;20049;-67
2022/07/27 05:27:23;;;;;;;13.52;6.00;;;;;;;23.35;59.69;100169.59;4989845;28;20031;-68
2022/07/27 05:29:49;;;;;;;6.50;4.63;;;;;;;23.50;59.47;100178.31;4990511;28;20046;-67
2022/07/27 05:32:14;;;;;;;7.53;4.63;;;;;;;23.65;59.44;100178.84;4989530;28;20481;-68
2022/07/27 05:34:40;;;;;;;7.32;4.95;;;;;;;23.80;58.17;100168.38;4989848;28;20029;-69
2022/07/27 05:37:07;;;;;;;5.80;4.50;;;;;;;23.94;57.23;100172.72;4989947;28;20029;-67
2022/07/27 05:39:32;;;;;;;6.63;4.03;;;;;;;24.08;56.41;100170.69;4989769;28;20085;-69
2022/07/27 05:41:58;;;;;;;8.15;4.35;;;;;;;24.10;55.47;100143.91;4989479;28;20511;-69
2022/07/27 05:44:23;;;;;;;11.20;4.50;;;;;;;24.42;54.85;100179.22;4989249;28;20519;-69
2022/07/27 05:46:48;;;;;;;7.63;4.40;;;;;;;24.48;54.16;100167.31;4989307;28;20030;-69
2022/07/27 05:49:14;;;;;;;7.50;4.32;;;;;;;24.64;53.39;100176.03;4989579;28;20034;-68
2022/07/27 05:51:39;;;;;;;12.68;4.22;;;;;;;24.76;52.96;100174.22;4988946;28;20037;-68
2022/07/27 05:54:05;;;;;;;7.93;4.28;;;;;;;24.78;53.00;100164.69;4989272;28;20109;-68
2022/07/27 05:56:31;;;;;;;10.73;4.32;;;;;;;25.02;52.34;100173.88;4989596;28;20026;-68
2022/07/27 05:58:57;;;;;;;8.23;4.63;;;;;;;25.14;51.80;100175.59;4989215;28;20499;-68
2022/07/27 06:01:22;;;;;;;12.45;4.60;;;;;;;25.23;51.70;100168.72;4988974;28;20026;-67
2022/07/27 06:03:48;;;;;;;4.35;3.35;;;;;;;25.42;50.52;100175.03;4989570;28;20054;-67
2022/07/27 06:08:57;;;;;;;7.68;3.92;;;;;;;25.76;50.28;100177.03;4989817;28;20624;-68
2022/07/27 06:11:22;;;;;;;5.47;3.65;;;;;;;25.81;50.23;100161.50;4989388;28;20149;-67
2022/07/27 06:13:49;;;;;;;9.07;4.15;;;;;;;25.92;49.63;100179.91;4989388;28;20026;-69
2022/07/27 06:16:15;;;;;;;4.70;3.78;;;;;;;26.08;50.05;100181.13;4989571;28;20058;-69
2022/07/27 06:18:40;;;;;;;7.40;3.95;;;;;;;26.22;49.82;100175.16;4988000;28;20496;-66
2022/07/27 06:21:06;;;;;;;6.03;4.05;;;;;;;26.22;49.97;100163.34;4989300;28;20456;-66
2022/07/27 06:23:32;;;;;;;7.72;4.43;;;;;;;26.43;50.01;100179.22;4989366;28;20663;-67
2022/07/27 06:25:57;;;;;;;4.63;3.72;;;;;;;26.59;50.11;100184.00;4987515;28;20018;-68
2022/07/27 06:28:23;;;;;;;5.95;3.50;;;;;;;26.73;49.21;100177.19;4986916;28;20034;-68
2022/07/27 06:30:48;;;;;;;9.23;3.58;;;;;;;26.88;49.08;100176.66;4987211;28;20034;-68
2022/07/27 06:33:14;;;;;;;3.70;3.28;;;;;;;27.05;49.01;100183.91;4988737;28;20117;-69
2022/07/27 06:35:40;;;;;;;4.97;3.50;;;;;;;27.14;48.52;100176.94;4988606;28;20030;-68
2022/07/27 06:38:06;;;;;;;4.88;3.28;;;;;;;27.32;48.48;100190.56;4989154;28;20034;-69
2022/07/27 06:40:32;;;;;;;4.75;3.63;;;;;;;27.39;47.65;100188.47;4987222;28;20085;-68
2022/07/27 06:42:58;;;;;;;6.45;3.63;;;;;;;27.47;47.73;100174.28;4988420;28;20034;-69
2022/07/27 06:45:24;;;;;;;4.18;3.78;;;;;;;27.60;47.17;100171.22;4988725;28;20035;-69
2022/07/27 06:47:50;;;;;;;8.18;4.35;;;;;;;27.76;46.78;100164.88;4989044;28;20030;-67
2022/07/27 06:50:19;;;;;;;5.13;3.70;;;;;;;27.86;46.83;100169.78;4988677;28;20503;-67
2022/07/27 06:52:46;;;;;;;4.07;3.40;;;;;;;27.89;46.29;100158.25;4988385;28;20725;-68
2022/07/27 06:55:12;;;;;;;5.40;3.60;;;;;;;28.03;46.15;100165.94;4987295;28;20384;-67
2022/07/27 06:57:37;;;;;;;7.80;4.13;;;;;;;28.22;46.20;100181.16;4988614;28;20022;-68
2022/07/27 07:00:05;;;;;;;6.00;4.03;;;;;;;28.31;46.49;100165.81;4988932;28;20400;-68
2022/07/27 07:02:31;;;;;;;5.30;3.75;;;;;;;28.35;46.29;100172.53;4988335;28;20135;-69
2022/07/27 07:04:57;;;;;;;7.05;3.92;;;;;;;28.46;45.65;100173.50;4988136;28;20500;-67
2022/07/27 07:07:22;;;;;;;4.38;3.97;;;;;;;28.51;45.71;100176.34;4988381;28;20073;-68
2022/07/27 07:09:47;;;;;;;3.53;3.10;;;;;;;28.57;45.79;100171.75;4988308;28;20034;-68
2022/07/27 07:12:13;;;;;;;4.90;4.40;;;;;;;28.60;46.33;100168.47;4988205;28;20496;-68
2022/07/27 07:14:38;;;;;;;4.65;4.15;;;;;;;28.55;45.80;100160.94;4988114;28;20030;-69
2022/07/27 07:17:04;;;;;;;5.28;4.10;;;;;;;28.56;46.18;100164.56;4988694;28;20038;-69
2022/07/27 07:19:30;;;;;;;7.75;4.20;;;;;;;28.59;46.09;100166.81;4986613;28;20091;-68
2022/07/27 07:21:55;;;;;;;9.90;4.38;;;;;;;28.65;46.15;100168.53;4986575;28;20491;-69
2022/07/27 07:24:21;;;;;;;4.90;4.45;;;;;;;28.68;46.78;100171.63;4988353;28;20026;-69
2022/07/27 07:26:46;;;;;;;5.35;4.85;;;;;;;28.74;46.52;100170.59;4985635;28;20071;-66
2022/07/27 07:29:12;;;;;;;5.07;4.57;;;;;;;28.82;45.99;100172.91;4986537;28;20432;-68
2022/07/27 07:31:37;;;;;;;4.80;3.58;;;;;;;28.94;45.29;100172.75;4988276;28;20022;-68
2022/07/27 07:34:03;;;;;;;6.45;4.10;;;;;;;28.93;45.02;100158.16;4986674;28;20113;-68
2022/07/27 07:36:29;;;;;;;5.43;4.03;;;;;;;28.98;45.39;100160.94;4987711;28;20014;-68
2022/07/27 07:38:54;;;;;;;6.35;4.43;;;;;;;28.97;45.52;100152.91;4987721;28;20361;-69
2022/07/27 07:41:22;;;;;;;4.68;4.20;;;;;;;29.06;45.42;100159.69;4987512;28;20026;-68
2022/07/27 07:43:47;;;;;;;10.30;5.00;;;;;;;29.06;45.65;100155.00;4987534;28;20046;-67
2022/07/27 07:46:13;;;;;;;6.82;4.10;;;;;;;29.24;45.30;100162.13;4987413;28;20053;-67
2022/07/27 07:48:38;;;;;;;7.05;4.35;;;;;;;29.28;45.13;100164.13;4987490;28;20456;-67
2022/07/27 07:51:04;;;;;;;6.88;4.75;;;;;;;29.34;45.02;100156.69;4987770;28;20673;-67
2022/07/27 07:53:29;;;;;;;4.88;4.47;;;;;;;29.32;45.53;100159.72;4987479;28;20038;-68
2022/07/27 07:55:57;;;;;;;5.30;4.80;;;;;;;29.39;45.65;100162.25;4985888;28;20059;-68
2022/07/27 07:58:22;;;;;;;4.75;4.30;;;;;;;29.43;45.41;100160.69;4987283;28;20041;-68
2022/07/27 08:00:48;;;;;;;5.45;4.78;;;;;;;29.55;45.31;100162.16;4978658;28;20038;-69
2022/07/27 08:03:14;;;;;;;4.90;4.50;;;;;;;29.56;45.09;100151.97;4987413;28;20030;-68
2022/07/27 08:05:39;;;;;;;4.35;3.95;;;;;;;29.59;45.10;100143.09;4987442;28;20036;-68
2022/07/27 08:08:04;;;;;;;4.85;4.35;;;;;;;29.78;44.66;100163.78;4987990;28;20041;-67
2022/07/27 08:10:30;;;;;;;7.72;5.03;;;;;;;29.84;44.19;100159.97;4987310;28;20479;-67
2022/07/27 08:12:56;;;;;;;5.15;4.18;;;;;;;29.85;43.94;100153.31;4987045;28;20093;-67
2022/07/27 08:15:22;;;;;;;6.53;4.72;;;;;;;29.83;43.77;100158.31;4986986;28;20494;-67
2022/07/27 08:17:48;;;;;;;4.35;3.95;;;;;;;29.80;43.91;100156.91;4987133;28;20088;-67
2022/07/27 08:20:14;;;;;;;6.22;4.03;;;;;;;29.76;43.47;100152.16;4986908;28;20365;-67
2022/07/27 08:22:40;;;;;;;4.65;4.25;;;;;;;29.81;42.70;100160.50;4984898;28;20080;-67
2022/07/27 08:25:07;;;;;;;5.05;3.78;;;;;;;29.82;43.21;100168.53;4984991;28;20117;-68
2022/07/27 08:27:32;;;;;;;4.30;3.80;;;;;;;29.78;43.36;100161.84;4987113;28;20455;-68
2022/07/27 08:29:58;;;;;;;7.35;3.85;;;;;;;29.87;43.15;100170.50;4986711;28;20030;-66
2022/07/27 08:32:24;;;;;;;6.75;4.18;;;;;;;29.90;42.71;100169.97;4986955;28;20037;-67
2022/07/27 08:34:50;;;;;;;4.43;3.95;;;;;;;29.85;43.10;100167.16;4986770;28;20026;-67
2022/07/27 08:37:16;;;;;;;9.32;3.95;;;;;;;29.79;42.96;100163.53;4987162;28;20030;-68
2022/07/27 08:39:42;;;;;;;4.40;4.00;;;;;;;29.81;43.30;100163.25;4986666;28;20037;-67
2022/07/27 08:42:09;;;;;;;4.40;4.00;;;;;;;29.82;42.37;100165.75;4987168;28;20619;-67
2022/07/27 08:44:38;;;;;;;5.35;4.35;;;;;;;29.82;42.79;100160.22;4984823;28;20050;-68
2022/07/27 08:47:04;;;;;;;5.55;4.47;;;;;;;29.87;42.82;100164.97;4987051;28;20042;-68
2022/07/27 08:49:30;;;;;;;7.28;4.35;;;;;;;29.89;42.87;100149.78;4986782;28;20035;-68
2022/07/27 08:51:56;;;;;;;5.38;3.85;;;;;;;29.95;42.48;100143.19;4986767;28;20109;-68
2022/07/27 08:54:23;;;;;;;7.25;3.80;;;;;;;30.18;42.36;100153.09;4990498;28;20120;-68
2022/07/27 08:56:49;;;;;;;5.80;4.00;;;;;;;30.30;41.63;100160.06;4990930;28;20459;-68
2022/07/27 08:59:14;;;;;;;4.35;3.80;;;;;;;30.29;40.42;100132.66;4991097;28;20050;-68
2022/07/27 09:01:40;;;;;;;4.70;3.83;;;;;;;30.40;40.86;100151.84;4990893;28;20040;-68
2022/07/27 09:04:09;;;;;;;3.97;3.58;;;;;;;30.45;40.54;100153.81;4990697;28;20038;-69
2022/07/27 09:06:49;;;;;;;5.00;3.90;;;;;;;30.52;40.20;100159.94;4990548;28;20112;-68
2022/07/27 09:09:17;;;;;;;5.25;3.47;;;;;;;30.42;40.20;100135.81;4990723;28;20037;-68
2022/07/27 09:11:44;;;;;;;6.65;4.00;;;;;;;30.43;39.98;100147.69;4990185;28;20038;-68
2022/07/27 09:14:11;;;;;;;4.80;4.05;;;;;;;30.51;39.69;100152.75;4991054;28;20455;-68
2022/07/27 09:16:38;;;;;;;7.05;3.78;;;;;;;30.46;39.28;100144.38;4991024;28;20105;-68
2022/07/27 09:19:08;;;;;;;3.80;3.30;;;;;;;30.52;39.11;100154.41;4990359;28;20724;-68
2022/07/27 09:21:35;;;;;;;4.63;4.13;;;;;;;30.46;39.29;100144.38;4990476;28;20037;-68
2022/07/27 09:24:08;;;;;;;3.97;3.30;;;;;;;30.49;38.81;100135.53;4988781;28;20924;-67
2022/07/27 09:26:34;;;;;;;6.20;3.75;;;;;;;30.44;39.38;100139.13;4990293;28;20400;-69
2022/07/27 09:29:02;;;;;;;10.55;4.10;;;;;;;30.49;39.68;100139.16;4990079;28;20096;-69
2022/07/27 09:31:28;;;;;;;4.20;3.80;;;;;;;30.56;39.42;100141.66;4990514;28;20054;-68
2022/07/27 09:33:57;;;;;;;5.65;3.85;;;;;;;30.62;39.28;100131.47;4989102;28;20093;-68
2022/07/27 09:36:24;;;;;;;5.88;4.10;;;;;;;30.73;39.27;100131.28;4990605;28;20102;-69
2022/07/27 09:38:52;;;;;;;5.38;3.83;;;;;;;30.80;38.53;100139.31;4990111;28;20142;-69
2022/07/27 09:41:18;;;;;;;5.15;3.85;;;;;;;30.85;38.33;100137.41;4989817;28;20037;-67
2022/07/27 09:43:54;;;;;;;4.53;3.95;;;;;;;30.87;38.39;100135.22;4988359;28;20049;-68
2022/07/27 09:46:35;;;;;;;3.53;3.22;;;;;;;30.88;38.47;100128.56;4989848;28;20182;-69
2022/07/27 09:49:01;;;;;;;3.95;3.42;;;;;;;30.88;37.60;100125.78;4989980;28;20120;-69
2022/07/27 09:51:29;;;;;;;4.55;3.80;;;;;;;30.90;37.21;100133.81;4989839;28;20038;-68
2022/07/27 09:53:58;;;;;;;4.60;3.22;;;;;;;30.93;37.17;100134.13;4988077;28;20415;-69
2022/07/27 09:56:32;;;;;;;4.82;3.63;;;;;;;30.97;36.98;100124.16;4989632;28;20096;-69
2022/07/27 09:59:00;;;;;;;4.32;3.30;;;;;;;31.01;36.83;100124.47;4988157;28;20041;-69
2022/07/27 10:01:28;;;;;;;7.72;3.78;;;;;;;31.03;36.70;100131.38;4989654;28;20472;-67
2022/07/27 10:03:57;;;;;;;4.85;3.50;;;;;;;31.03;36.86;100130.53;4988607;28;20022;-69
2022/07/27 10:06:24;;;;;;;5.03;3.25;;;;;;;31.03;36.36;100127.78;4989378;28;20128;-68
2022/07/27 10:08:51;;;;;;;5.03;3.60;;;;;;;31.05;36.39;100126.41;4988049;28;20208;-68
2022/07/27 10:11:18;;;;;;;3.95;3.58;;;;;;;31.04;36.57;100124.72;4989676;28;20033;-67
2022/07/27 10:13:44;;;;;;;3.25;2.95;;;;;;;30.98;35.83;100100.88;4989478;28;20038;-67
2022/07/27 10:16:26;;;;;;;7.13;3.38;;;;;;;31.07;35.76;100107.56;4990141;28;20041;-68
2022/07/27 10:19:27;;;;;;;5.05;3.47;;;;;;;31.05;35.35;100109.78;4987486;28;20057;-68
2022/07/27 10:21:52;;;;;;;4.70;3.00;;;;;;;31.01;35.08;100105.88;4987724;28;20113;-69
2022/07/27 10:24:35;;;;;;;7.90;3.55;;;;;;;31.06;35.00;100111.44;4989563;28;20097;-68
2022/07/27 10:27:21;;;;;;;4.82;3.22;;;;;;;30.98;34.59;100100.06;4989223;28;20491;-68
2022/07/27 10:29:48;;;;;;;6.15;3.28;;;;;;;31.08;33.44;100114.75;4989314;28;20113;-68
2022/07/27 10:32:26;;;;;;;3.63;2.85;;;;;;;31.07;33.09;100112.25;4988458;28;20026;-67
2022/07/27 10:34:52;;;;;;;5.05;3.00;;;;;;;31.02;33.48;100109.50;4988952;28;20052;-67
2022/07/27 10:37:26;;;;;;;4.07;2.70;;;;;;;31.02;33.97;100113.09;4989172;28;20130;-69
2022/07/27 10:40:33;;;;;;;3.72;3.03;;;;;;;31.04;33.55;100108.09;4988688;28;20040;-68
2022/07/27 10:42:41;;;;;;;4.25;2.60;;;;;;;31.03;32.65;100100.91;4988611;28;20495;-68
2022/07/27 10:45:15;;;;;;;5.28;2.90;;;;;;;30.94;32.58;100094.22;4987277;28;20051;-67
2022/07/27 10:47:49;;;;;;;6.60;3.08;;;;;;;31.06;31.75;100105.91;4988713;28;20034;-68
2022/07/27 10:50:14;;;;;;;5.90;2.80;;;;;;;31.03;31.59;100103.69;4988927;28;20029;-68
2022/07/27 10:52:56;;;;;;;2.63;2.42;;;;;;;31.08;31.75;100089.81;4988942;28;20034;-68
2022/07/27 10:55:31;;;;;;;3.78;2.83;;;;;;;31.15;31.80;100098.72;4988651;28;20090;-68
2022/07/27 10:58:09;;;;;;;4.20;2.60;;;;;;;31.11;33.49;100086.50;4988756;28;20026;-69
2022/07/27 11:00:50;;;;;;;4.45;3.65;;;;;;;31.21;32.85;100096.78;4985523;28;20627;-68
2022/07/27 11:03:46;;;;;;;5.68;3.20;;;;;;;31.14;33.22;100096.22;4988893;28;20053;-68
2022/07/27 11:06:19;;;;;;;3.78;2.83;;;;;;;31.13;33.49;100092.63;4987292;28;20038;-66
2022/07/27 11:08:46;;;;;;;4.40;2.92;;;;;;;31.17;33.40;100085.41;4988896;28;20034;-67
2022/07/27 11:11:33;;;;;;;4.53;2.80;;;;;;;31.21;32.95;100085.72;4988654;28;20133;-67
2022/07/27 11:13:59;;;;;;;3.55;3.17;;;;;;;31.27;32.25;100088.22;4986914;28;20169;-67
2022/07/27 11:16:27;;;;;;;8.43;3.33;;;;;;;31.36;31.76;100094.06;4986423;28;20506;-67
2022/07/27 11:19:03;;;;;;;4.50;2.70;;;;;;;31.35;31.94;100087.69;4988066;28;20030;-68
2022/07/27 11:21:32;;;;;;;3.25;2.92;;;;;;;31.39;31.83;100094.34;4986751;28;20056;-68
2022/07/27 11:24:22;;;;;;;4.85;2.90;;;;;;;31.34;31.40;100074.91;4987973;28;20086;-67